sensor_id;sensor_type;location;lat;lon;timestamp;P1;durP1;ratioP1;P2;durP2;ratioP2
52033;SDS011;38045;52.988;6.536;2022-09-30T00:01:05;5.07;;;4.03;;
52033;SDS011;38045;52.988;6.536;2022-09-30T00:03:31;8.50;;;3.38;;
52033;SDS011;38045;52.988;6.536;2022-09-30T00:06:00;8.55;;;4.55;;
52033;SDS011;38045;52.988;6.536;2022-09-30T00:08:27;4.32;;;3.97;;
52033;SDS011;38045;52.988;6.536;2022-09-30T00:11:03;5.85;;;4.60;;
52033;SDS011;38045;52.988;6.536;2022-09-30T00:13:35;5.43;;;4.93;;
52033;SDS011;38045;52.988;6.536;2022-09-30T00:16:02;5.30;;;4.68;;
52033;SDS011;38045;52.988;6.536;2022-09-30T00:18:29;5.50;;;4.45;;
52033;SDS011;38045;52.988;6.536;2022-09-30T00:20:55;5.95;;;3.65;;
52033;SDS011;38045;52.988;6.536;2022-09-30T00:23:21;4.38;;;3.88;;
52033;SDS011;38045;52.988;6.536;2022-09-30T00:25:47;3.95;;;3.53;;
52033;SDS011;38045;52.988;6.536;2022-09-30T00:28:14;5.28;;;4.78;;
52033;SDS011;38045;52.988;6.536;2022-09-30T00:30:40;4.85;;;3.70;;
52033;SDS011;38045;52.988;6.536;2022-09-30T00:33:06;5.50;;;5.00;;
52033;SDS011;38045;52.988;6.536;2022-09-30T00:35:32;6.10;;;3.88;;
52033;SDS011;38045;52.988;6.536;2022-09-30T00:37:57;7.38;;;4.47;;
52033;SDS011;38045;52.988;6.536;2022-09-30T00:40:24;4.40;;;4.00;;
52033;SDS011;38045;52.988;6.536;2022-09-30T00:42:51;3.67;;;2.80;;
52033;SDS011;38045;52.988;6.536;2022-09-30T00:45:16;4.28;;;3.80;;
52033;SDS011;38045;52.988;6.536;2022-09-30T00:52:45;3.67;;;3.20;;
52033;SDS011;38045;52.988;6.536;2022-09-30T00:55:20;5.13;;;4.72;;
52033;SDS011;38045;52.988;6.536;2022-09-30T00:57:54;4.85;;;3.35;;
52033;SDS011;38045;52.988;6.536;2022-09-30T01:00:20;4.57;;;4.07;;
52033;SDS011;38045;52.988;6.536;2022-09-30T01:02:46;5.13;;;3.65;;
52033;SDS011;38045;52.988;6.536;2022-09-30T01:05:12;3.95;;;3.65;;
52033;SDS011;38045;52.988;6.536;2022-09-30T01:07:38;3.70;;;3.45;;
52033;SDS011;38045;52.988;6.536;2022-09-30T01:10:04;3.55;;;3.25;;
52033;SDS011;38045;52.988;6.536;2022-09-30T01:12:30;3.65;;;3.35;;
52033;SDS011;38045;52.988;6.536;2022-09-30T01:14:55;8.30;;;4.28;;
52033;SDS011;38045;52.988;6.536;2022-09-30T01:20:30;4.43;;;4.10;;
52033;SDS011;38045;52.988;6.536;2022-09-30T01:37:30;5.10;;;4.60;;
52033;SDS011;38045;52.988;6.536;2022-09-30T01:40:02;3.83;;;3.53;;
52033;SDS011;38045;52.988;6.536;2022-09-30T01:45:14;3.53;;;3.22;;
52033;SDS011;38045;52.988;6.536;2022-09-30T01:47:53;4.05;;;3.70;;
52033;SDS011;38045;52.988;6.536;2022-09-30T01:50:23;4.95;;;2.95;;
52033;SDS011;38045;52.988;6.536;2022-09-30T01:53:08;5.13;;;4.32;;
52033;SDS011;38045;52.988;6.536;2022-09-30T01:55:57;4.43;;;4.13;;
52033;SDS011;38045;52.988;6.536;2022-09-30T02:02:01;4.70;;;4.10;;
52033;SDS011;38045;52.988;6.536;2022-09-30T02:04:58;6.10;;;4.70;;
52033;SDS011;38045;52.988;6.536;2022-09-30T02:07:23;4.73;;;4.33;;
52033;SDS011;38045;52.988;6.536;2022-09-30T02:09:58;4.63;;;3.60;;
52033;SDS011;38045;52.988;6.536;2022-09-30T02:12:59;4.22;;;3.03;;
52033;SDS011;38045;52.988;6.536;2022-09-30T02:15:35;3.80;;;3.50;;
52033;SDS011;38045;52.988;6.536;2022-09-30T02:18:09;3.70;;;3.40;;
52033;SDS011;38045;52.988;6.536;2022-09-30T02:20:44;4.20;;;3.80;;
52033;SDS011;38045;52.988;6.536;2022-09-30T02:23:15;4.78;;;4.38;;
52033;SDS011;38045;52.988;6.536;2022-09-30T02:25:48;3.97;;;3.67;;
52033;SDS011;38045;52.988;6.536;2022-09-30T02:28:22;4.15;;;3.78;;
52033;SDS011;38045;52.988;6.536;2022-09-30T02:30:53;4.25;;;3.88;;
52033;SDS011;38045;52.988;6.536;2022-09-30T02:33:24;31.08;;;6.30;;
52033;SDS011;38045;52.988;6.536;2022-09-30T02:36:02;7.10;;;3.80;;
52033;SDS011;38045;52.988;6.536;2022-09-30T02:38:35;30.75;;;5.28;;
52033;SDS011;38045;52.988;6.536;2022-09-30T02:41:10;5.45;;;4.18;;
52033;SDS011;38045;52.988;6.536;2022-09-30T02:43:44;4.80;;;4.40;;
52033;SDS011;38045;52.988;6.536;2022-09-30T02:51:18;6.88;;;4.50;;
52033;SDS011;38045;52.988;6.536;2022-09-30T02:54:19;4.15;;;3.75;;
52033;SDS011;38045;52.988;6.536;2022-09-30T02:57:14;4.87;;;4.40;;
52033;SDS011;38045;52.988;6.536;2022-09-30T02:59:48;4.43;;;3.10;;
52033;SDS011;38045;52.988;6.536;2022-09-30T03:02:16;4.63;;;4.10;;
52033;SDS011;38045;52.988;6.536;2022-09-30T03:04:44;4.20;;;3.65;;
52033;SDS011;38045;52.988;6.536;2022-09-30T03:07:11;4.28;;;3.88;;
52033;SDS011;38045;52.988;6.536;2022-09-30T03:09:37;4.68;;;4.28;;
52033;SDS011;38045;52.988;6.536;2022-09-30T03:12:16;6.78;;;3.83;;
52033;SDS011;38045;52.988;6.536;2022-09-30T03:25:55;3.65;;;3.35;;
52033;SDS011;38045;52.988;6.536;2022-09-30T03:28:26;5.50;;;4.10;;
52033;SDS011;38045;52.988;6.536;2022-09-30T03:31:24;7.13;;;4.68;;
52033;SDS011;38045;52.988;6.536;2022-09-30T03:33:56;5.13;;;3.97;;
52033;SDS011;38045;52.988;6.536;2022-09-30T03:36:38;4.68;;;3.30;;
52033;SDS011;38045;52.988;6.536;2022-09-30T03:39:27;5.20;;;3.92;;
52033;SDS011;38045;52.988;6.536;2022-09-30T03:44:40;3.55;;;3.25;;
52033;SDS011;38045;52.988;6.536;2022-09-30T03:47:14;10.93;;;3.88;;
52033;SDS011;38045;52.988;6.536;2022-09-30T03:49:42;8.82;;;4.10;;
52033;SDS011;38045;52.988;6.536;2022-09-30T03:52:12;6.72;;;4.10;;
52033;SDS011;38045;52.988;6.536;2022-09-30T03:57:13;4.88;;;4.45;;
52033;SDS011;38045;52.988;6.536;2022-09-30T03:59:39;4.95;;;4.45;;
52033;SDS011;38045;52.988;6.536;2022-09-30T04:02:04;4.85;;;4.45;;
52033;SDS011;38045;52.988;6.536;2022-09-30T04:04:34;4.80;;;4.40;;
52033;SDS011;38045;52.988;6.536;2022-09-30T04:07:00;19.00;;;6.70;;
52033;SDS011;38045;52.988;6.536;2022-09-30T04:09:26;4.60;;;4.18;;
52033;SDS011;38045;52.988;6.536;2022-09-30T04:11:51;5.00;;;4.50;;
52033;SDS011;38045;52.988;6.536;2022-09-30T04:14:17;9.25;;;5.32;;
52033;SDS011;38045;52.988;6.536;2022-09-30T04:16:43;6.82;;;5.55;;
52033;SDS011;38045;52.988;6.536;2022-09-30T04:19:08;6.50;;;4.00;;
52033;SDS011;38045;52.988;6.536;2022-09-30T04:21:34;5.05;;;4.18;;
52033;SDS011;38045;52.988;6.536;2022-09-30T04:23:59;21.63;;;5.25;;
52033;SDS011;38045;52.988;6.536;2022-09-30T04:26:25;10.10;;;4.70;;
52033;SDS011;38045;52.988;6.536;2022-09-30T04:28:51;3.75;;;3.17;;
52033;SDS011;38045;52.988;6.536;2022-09-30T04:31:17;3.25;;;2.92;;
52033;SDS011;38045;52.988;6.536;2022-09-30T04:33:45;2.85;;;2.65;;
52033;SDS011;38045;52.988;6.536;2022-09-30T04:36:11;9.18;;;3.65;;
52033;SDS011;38045;52.988;6.536;2022-09-30T04:38:36;5.45;;;2.90;;
52033;SDS011;38045;52.988;6.536;2022-09-30T04:41:02;3.28;;;3.08;;
52033;SDS011;38045;52.988;6.536;2022-09-30T04:43:30;3.65;;;3.35;;
52033;SDS011;38045;52.988;6.536;2022-09-30T04:45:58;2.72;;;2.53;;
52033;SDS011;38045;52.988;6.536;2022-09-30T04:48:24;3.67;;;3.38;;
52033;SDS011;38045;52.988;6.536;2022-09-30T04:50:52;3.85;;;3.45;;
52033;SDS011;38045;52.988;6.536;2022-09-30T04:53:18;3.35;;;3.15;;
52033;SDS011;38045;52.988;6.536;2022-09-30T04:55:44;4.53;;;4.15;;
52033;SDS011;38045;52.988;6.536;2022-09-30T04:58:10;6.78;;;4.43;;
52033;SDS011;38045;52.988;6.536;2022-09-30T05:00:36;5.07;;;4.57;;
52033;SDS011;38045;52.988;6.536;2022-09-30T05:03:03;3.40;;;3.10;;
52033;SDS011;38045;52.988;6.536;2022-09-30T05:05:29;4.63;;;4.18;;
52033;SDS011;38045;52.988;6.536;2022-09-30T05:08:01;9.40;;;4.15;;
52033;SDS011;38045;52.988;6.536;2022-09-30T05:10:28;3.67;;;3.15;;
52033;SDS011;38045;52.988;6.536;2022-09-30T05:12:54;8.38;;;4.97;;
52033;SDS011;38045;52.988;6.536;2022-09-30T05:15:21;9.52;;;5.30;;
52033;SDS011;38045;52.988;6.536;2022-09-30T05:17:50;5.28;;;4.68;;
52033;SDS011;38045;52.988;6.536;2022-09-30T05:20:16;7.68;;;5.18;;
52033;SDS011;38045;52.988;6.536;2022-09-30T05:22:42;6.25;;;5.10;;
52033;SDS011;38045;52.988;6.536;2022-09-30T05:25:08;8.75;;;5.07;;
52033;SDS011;38045;52.988;6.536;2022-09-30T05:27:34;5.85;;;4.05;;
52033;SDS011;38045;52.988;6.536;2022-09-30T05:29:59;7.45;;;6.03;;
52033;SDS011;38045;52.988;6.536;2022-09-30T05:32:25;5.68;;;4.80;;
52033;SDS011;38045;52.988;6.536;2022-09-30T05:34:51;5.15;;;4.70;;
52033;SDS011;38045;52.988;6.536;2022-09-30T05:37:16;5.47;;;4.97;;
52033;SDS011;38045;52.988;6.536;2022-09-30T05:39:42;12.73;;;7.63;;
52033;SDS011;38045;52.988;6.536;2022-09-30T05:42:08;9.20;;;5.80;;
52033;SDS011;38045;52.988;6.536;2022-09-30T05:44:33;7.50;;;6.03;;
52033;SDS011;38045;52.988;6.536;2022-09-30T05:46:59;9.82;;;7.15;;
52033;SDS011;38045;52.988;6.536;2022-09-30T05:49:25;6.38;;;5.78;;
52033;SDS011;38045;52.988;6.536;2022-09-30T05:51:50;9.00;;;7.07;;
52033;SDS011;38045;52.988;6.536;2022-09-30T05:54:16;8.20;;;5.80;;
52033;SDS011;38045;52.988;6.536;2022-09-30T05:56:42;18.33;;;8.77;;
52033;SDS011;38045;52.988;6.536;2022-09-30T05:59:08;7.55;;;6.72;;
52033;SDS011;38045;52.988;6.536;2022-09-30T06:01:33;16.70;;;6.72;;
52033;SDS011;38045;52.988;6.536;2022-09-30T06:04:00;20.63;;;9.32;;
52033;SDS011;38045;52.988;6.536;2022-09-30T06:06:25;11.07;;;7.82;;
52033;SDS011;38045;52.988;6.536;2022-09-30T06:08:51;9.77;;;8.88;;
52033;SDS011;38045;52.988;6.536;2022-09-30T06:11:18;42.25;;;9.48;;
52033;SDS011;38045;52.988;6.536;2022-09-30T06:13:45;12.48;;;7.28;;
52033;SDS011;38045;52.988;6.536;2022-09-30T06:16:12;12.35;;;8.20;;
52033;SDS011;38045;52.988;6.536;2022-09-30T06:18:38;7.47;;;6.72;;
52033;SDS011;38045;52.988;6.536;2022-09-30T06:21:05;27.77;;;10.75;;
52033;SDS011;38045;52.988;6.536;2022-09-30T06:23:33;7.25;;;6.55;;
52033;SDS011;38045;52.988;6.536;2022-09-30T06:25:59;6.35;;;5.75;;
52033;SDS011;38045;52.988;6.536;2022-09-30T06:28:26;6.72;;;6.13;;
52033;SDS011;38045;52.988;6.536;2022-09-30T06:30:52;13.63;;;7.35;;
52033;SDS011;38045;52.988;6.536;2022-09-30T06:33:18;8.40;;;6.93;;
52033;SDS011;38045;52.988;6.536;2022-09-30T06:35:45;7.78;;;7.07;;
52033;SDS011;38045;52.988;6.536;2022-09-30T06:38:12;7.45;;;6.55;;
52033;SDS011;38045;52.988;6.536;2022-09-30T06:40:40;10.70;;;7.73;;
52033;SDS011;38045;52.988;6.536;2022-09-30T06:43:06;7.38;;;6.32;;
52033;SDS011;38045;52.988;6.536;2022-09-30T06:45:34;9.90;;;8.82;;
52033;SDS011;38045;52.988;6.536;2022-09-30T06:48:00;9.18;;;8.27;;
52033;SDS011;38045;52.988;6.536;2022-09-30T06:52:59;11.38;;;8.82;;
52033;SDS011;38045;52.988;6.536;2022-09-30T06:55:26;11.32;;;10.25;;
52033;SDS011;38045;52.988;6.536;2022-09-30T06:57:53;12.15;;;10.18;;
52033;SDS011;38045;52.988;6.536;2022-09-30T07:00:20;10.93;;;9.93;;
52033;SDS011;38045;52.988;6.536;2022-09-30T07:02:45;14.85;;;10.65;;
52033;SDS011;38045;52.988;6.536;2022-09-30T07:05:12;14.82;;;13.45;;
52033;SDS011;38045;52.988;6.536;2022-09-30T07:07:39;12.35;;;11.15;;
52033;SDS011;38045;52.988;6.536;2022-09-30T07:10:06;13.43;;;11.77;;
52033;SDS011;38045;52.988;6.536;2022-09-30T07:12:32;14.88;;;13.25;;
52033;SDS011;38045;52.988;6.536;2022-09-30T07:14:58;15.27;;;13.88;;
52033;SDS011;38045;52.988;6.536;2022-09-30T07:17:24;20.40;;;14.88;;
52033;SDS011;38045;52.988;6.536;2022-09-30T07:19:51;34.78;;;16.67;;
52033;SDS011;38045;52.988;6.536;2022-09-30T07:22:17;21.63;;;14.43;;
52033;SDS011;38045;52.988;6.536;2022-09-30T07:24:56;18.88;;;13.52;;
52033;SDS011;38045;52.988;6.536;2022-09-30T07:27:26;16.05;;;12.60;;
52033;SDS011;38045;52.988;6.536;2022-09-30T07:29:53;33.50;;;16.20;;
52033;SDS011;38045;52.988;6.536;2022-09-30T07:32:19;31.55;;;15.73;;
52033;SDS011;38045;52.988;6.536;2022-09-30T07:34:45;32.83;;;13.35;;
52033;SDS011;38045;52.988;6.536;2022-09-30T07:37:12;32.20;;;16.00;;
52033;SDS011;38045;52.988;6.536;2022-09-30T07:39:40;54.53;;;16.08;;
52033;SDS011;38045;52.988;6.536;2022-09-30T07:42:07;45.80;;;17.30;;
52033;SDS011;38045;52.988;6.536;2022-09-30T07:44:33;30.60;;;15.07;;
52033;SDS011;38045;52.988;6.536;2022-09-30T07:47:00;28.33;;;15.27;;
52033;SDS011;38045;52.988;6.536;2022-09-30T07:49:25;33.63;;;16.10;;
52033;SDS011;38045;52.988;6.536;2022-09-30T07:51:52;35.80;;;15.60;;
52033;SDS011;38045;52.988;6.536;2022-09-30T07:54:21;32.67;;;12.18;;
52033;SDS011;38045;52.988;6.536;2022-09-30T07:56:50;88.03;;;15.70;;
52033;SDS011;38045;52.988;6.536;2022-09-30T07:59:16;24.23;;;13.20;;
52033;SDS011;38045;52.988;6.536;2022-09-30T08:01:43;26.67;;;12.57;;
52033;SDS011;38045;52.988;6.536;2022-09-30T08:04:09;15.63;;;12.98;;
52033;SDS011;38045;52.988;6.536;2022-09-30T08:06:37;23.70;;;12.98;;
52033;SDS011;38045;52.988;6.536;2022-09-30T08:09:05;37.78;;;14.73;;
52033;SDS011;38045;52.988;6.536;2022-09-30T08:11:32;16.63;;;11.95;;
52033;SDS011;38045;52.988;6.536;2022-09-30T08:13:58;16.17;;;11.43;;
52033;SDS011;38045;52.988;6.536;2022-09-30T08:16:24;49.92;;;15.35;;
52033;SDS011;38045;52.988;6.536;2022-09-30T08:18:54;16.88;;;12.30;;
52033;SDS011;38045;52.988;6.536;2022-09-30T08:21:20;26.40;;;11.50;;
52033;SDS011;38045;52.988;6.536;2022-09-30T08:23:47;59.85;;;15.95;;
52033;SDS011;38045;52.988;6.536;2022-09-30T08:26:13;20.90;;;11.98;;
52033;SDS011;38045;52.988;6.536;2022-09-30T08:28:40;19.58;;;11.32;;
52033;SDS011;38045;52.988;6.536;2022-09-30T08:31:06;18.77;;;12.63;;
52033;SDS011;38045;52.988;6.536;2022-09-30T08:33:37;34.67;;;14.40;;
52033;SDS011;38045;52.988;6.536;2022-09-30T08:36:10;22.73;;;14.90;;
52033;SDS011;38045;52.988;6.536;2022-09-30T08:38:37;26.85;;;14.25;;
52033;SDS011;38045;52.988;6.536;2022-09-30T08:46:35;13.57;;;11.15;;
52033;SDS011;38045;52.988;6.536;2022-09-30T08:52:25;25.95;;;14.73;;
52033;SDS011;38045;52.988;6.536;2022-09-30T08:54:55;21.17;;;16.33;;
52033;SDS011;38045;52.988;6.536;2022-09-30T08:57:21;21.52;;;14.82;;
52033;SDS011;38045;52.988;6.536;2022-09-30T08:59:51;14.93;;;13.38;;
52033;SDS011;38045;52.988;6.536;2022-09-30T09:02:21;18.38;;;16.38;;
52033;SDS011;38045;52.988;6.536;2022-09-30T09:04:51;20.17;;;16.85;;
52033;SDS011;38045;52.988;6.536;2022-09-30T09:10:50;20.05;;;18.13;;
52033;SDS011;38045;52.988;6.536;2022-09-30T09:20:54;30.35;;;23.02;;
52033;SDS011;38045;52.988;6.536;2022-09-30T09:23:24;27.23;;;22.40;;
52033;SDS011;38045;52.988;6.536;2022-09-30T09:25:52;31.35;;;22.35;;
52033;SDS011;38045;52.988;6.536;2022-09-30T09:30:52;23.88;;;19.60;;
52033;SDS011;38045;52.988;6.536;2022-09-30T09:33:23;24.40;;;18.63;;
52033;SDS011;38045;52.988;6.536;2022-09-30T09:35:58;23.42;;;18.83;;
52033;SDS011;38045;52.988;6.536;2022-09-30T09:41:43;9.18;;;8.27;;
52033;SDS011;38045;52.988;6.536;2022-09-30T09:47:08;7.78;;;7.07;;
52033;SDS011;38045;52.988;6.536;2022-09-30T09:49:40;9.43;;;7.35;;
52033;SDS011;38045;52.988;6.536;2022-09-30T09:54:45;6.85;;;6.25;;
52033;SDS011;38045;52.988;6.536;2022-09-30T09:57:17;7.40;;;6.70;;
52033;SDS011;38045;52.988;6.536;2022-09-30T10:00:08;11.82;;;5.95;;
52033;SDS011;38045;52.988;6.536;2022-09-30T10:03:16;8.40;;;5.32;;
52033;SDS011;38045;52.988;6.536;2022-09-30T10:08:29;3.13;;;2.83;;
52033;SDS011;38045;52.988;6.536;2022-09-30T10:13:31;2.38;;;2.17;;
52033;SDS011;38045;52.988;6.536;2022-09-30T10:16:08;2.55;;;1.83;;
52033;SDS011;38045;52.988;6.536;2022-09-30T10:18:47;1.65;;;1.42;;
52033;SDS011;38045;52.988;6.536;2022-09-30T10:21:23;3.65;;;1.95;;
52033;SDS011;38045;52.988;6.536;2022-09-30T10:23:51;2.53;;;2.33;;
52033;SDS011;38045;52.988;6.536;2022-09-30T10:26:18;2.40;;;2.17;;
52033;SDS011;38045;52.988;6.536;2022-09-30T10:29:01;3.17;;;2.95;;
52033;SDS011;38045;52.988;6.536;2022-09-30T10:31:30;4.40;;;2.42;;
52033;SDS011;38045;52.988;6.536;2022-09-30T10:36:49;3.47;;;3.22;;
52033;SDS011;38045;52.988;6.536;2022-09-30T10:39:22;3.28;;;2.88;;
52033;SDS011;38045;52.988;6.536;2022-09-30T10:41:51;3.80;;;3.47;;
52033;SDS011;38045;52.988;6.536;2022-09-30T10:44:27;3.78;;;3.47;;
52033;SDS011;38045;52.988;6.536;2022-09-30T10:46:57;3.38;;;2.60;;
52033;SDS011;38045;52.988;6.536;2022-09-30T10:49:29;3.45;;;3.15;;
52033;SDS011;38045;52.988;6.536;2022-09-30T10:52:14;3.72;;;2.95;;
52033;SDS011;38045;52.988;6.536;2022-09-30T10:54:53;4.03;;;3.63;;
52033;SDS011;38045;52.988;6.536;2022-09-30T10:57:26;5.38;;;4.82;;
52033;SDS011;38045;52.988;6.536;2022-09-30T11:00:04;4.03;;;3.58;;
52033;SDS011;38045;52.988;6.536;2022-09-30T11:02:38;4.63;;;4.30;;
52033;SDS011;38045;52.988;6.536;2022-09-30T11:05:31;3.40;;;3.10;;
52033;SDS011;38045;52.988;6.536;2022-09-30T11:16:14;4.53;;;4.15;;
52033;SDS011;38045;52.988;6.536;2022-09-30T11:19:15;5.60;;;4.05;;
52033;SDS011;38045;52.988;6.536;2022-09-30T11:26:58;3.95;;;3.65;;
52033;SDS011;38045;52.988;6.536;2022-09-30T11:38:38;3.63;;;3.33;;
52033;SDS011;38045;52.988;6.536;2022-09-30T11:51:56;2.60;;;1.83;;
52033;SDS011;38045;52.988;6.536;2022-09-30T12:00:22;1.67;;;1.58;;
52033;SDS011;38045;52.988;6.536;2022-09-30T12:03:22;2.25;;;2.15;;
52033;SDS011;38045;52.988;6.536;2022-09-30T12:05:47;1.45;;;1.35;;
52033;SDS011;38045;52.988;6.536;2022-09-30T12:08:23;1.90;;;1.25;;
52033;SDS011;38045;52.988;6.536;2022-09-30T12:10:55;1.17;;;1.08;;
52033;SDS011;38045;52.988;6.536;2022-09-30T12:13:34;7.07;;;1.70;;
52033;SDS011;38045;52.988;6.536;2022-09-30T12:16:03;2.15;;;1.08;;
52033;SDS011;38045;52.988;6.536;2022-09-30T12:18:39;1.20;;;1.02;;
52033;SDS011;38045;52.988;6.536;2022-09-30T12:21:11;2.08;;;0.70;;
52033;SDS011;38045;52.988;6.536;2022-09-30T12:26:56;1.80;;;1.10;;
52033;SDS011;38045;52.988;6.536;2022-09-30T12:29:25;3.95;;;1.90;;
52033;SDS011;38045;52.988;6.536;2022-09-30T12:38:18;3.05;;;2.58;;
52033;SDS011;38045;52.988;6.536;2022-09-30T12:44:01;5.50;;;3.85;;
52033;SDS011;38045;52.988;6.536;2022-09-30T12:49:46;4.40;;;4.00;;
52033;SDS011;38045;52.988;6.536;2022-09-30T12:52:13;4.95;;;4.50;;
52033;SDS011;38045;52.988;6.536;2022-09-30T12:57:16;7.63;;;5.18;;
52033;SDS011;38045;52.988;6.536;2022-09-30T12:59:55;5.22;;;3.67;;
52033;SDS011;38045;52.988;6.536;2022-09-30T13:02:29;10.23;;;4.90;;
52033;SDS011;38045;52.988;6.536;2022-09-30T13:15:44;6.97;;;5.20;;
52033;SDS011;38045;52.988;6.536;2022-09-30T13:28:52;7.18;;;5.32;;
52033;SDS011;38045;52.988;6.536;2022-09-30T13:31:20;9.63;;;5.75;;
52033;SDS011;38045;52.988;6.536;2022-09-30T13:36:37;6.22;;;5.72;;
52033;SDS011;38045;52.988;6.536;2022-09-30T13:44:55;5.25;;;4.75;;
52033;SDS011;38045;52.988;6.536;2022-09-30T13:47:39;5.20;;;4.75;;
52033;SDS011;38045;52.988;6.536;2022-09-30T13:50:13;6.95;;;6.32;;
52033;SDS011;38045;52.988;6.536;2022-09-30T13:52:46;6.07;;;5.57;;
52033;SDS011;38045;52.988;6.536;2022-09-30T13:55:19;7.28;;;6.68;;
52033;SDS011;38045;52.988;6.536;2022-09-30T13:57:54;6.40;;;5.90;;
52033;SDS011;38045;52.988;6.536;2022-09-30T14:03:27;6.05;;;5.45;;
52033;SDS011;38045;52.988;6.536;2022-09-30T14:12:38;6.65;;;6.05;;
52033;SDS011;38045;52.988;6.536;2022-09-30T14:15:16;7.05;;;6.35;;
52033;SDS011;38045;52.988;6.536;2022-09-30T14:23:00;7.57;;;6.55;;
52033;SDS011;38045;52.988;6.536;2022-09-30T14:25:28;5.78;;;5.18;;
52033;SDS011;38045;52.988;6.536;2022-09-30T14:28:09;7.88;;;5.60;;
52033;SDS011;38045;52.988;6.536;2022-09-30T14:30:42;4.65;;;4.13;;
52033;SDS011;38045;52.988;6.536;2022-09-30T14:33:28;6.78;;;5.70;;
52033;SDS011;38045;52.988;6.536;2022-09-30T14:35:55;5.47;;;4.97;;
52033;SDS011;38045;52.988;6.536;2022-09-30T14:38:26;4.78;;;4.30;;
52033;SDS011;38045;52.988;6.536;2022-09-30T14:40:57;5.70;;;4.88;;
52033;SDS011;38045;52.988;6.536;2022-09-30T14:43:30;6.47;;;4.72;;
52033;SDS011;38045;52.988;6.536;2022-09-30T14:48:48;4.53;;;4.22;;
52033;SDS011;38045;52.988;6.536;2022-09-30T14:51:16;6.25;;;5.75;;
52033;SDS011;38045;52.988;6.536;2022-09-30T14:53:55;6.70;;;5.22;;
52033;SDS011;38045;52.988;6.536;2022-09-30T14:56:26;4.90;;;4.50;;
52033;SDS011;38045;52.988;6.536;2022-09-30T14:58:54;4.38;;;3.97;;
52033;SDS011;38045;52.988;6.536;2022-09-30T15:01:23;3.67;;;3.38;;
52033;SDS011;38045;52.988;6.536;2022-09-30T15:03:53;3.45;;;3.15;;
52033;SDS011;38045;52.988;6.536;2022-09-30T15:06:24;5.13;;;3.58;;
52033;SDS011;38045;52.988;6.536;2022-09-30T15:09:05;4.45;;;3.67;;
52033;SDS011;38045;52.988;6.536;2022-09-30T15:11:37;4.22;;;3.83;;
52033;SDS011;38045;52.988;6.536;2022-09-30T15:14:08;3.88;;;3.55;;
52033;SDS011;38045;52.988;6.536;2022-09-30T15:16:43;3.72;;;3.42;;
52033;SDS011;38045;52.988;6.536;2022-09-30T15:19:21;4.15;;;3.72;;
52033;SDS011;38045;52.988;6.536;2022-09-30T15:21:49;3.97;;;3.70;;
52033;SDS011;38045;52.988;6.536;2022-09-30T15:24:17;4.03;;;3.63;;
52033;SDS011;38045;52.988;6.536;2022-09-30T15:26:44;3.83;;;3.53;;
52033;SDS011;38045;52.988;6.536;2022-09-30T15:29:13;3.50;;;3.03;;
52033;SDS011;38045;52.988;6.536;2022-09-30T15:31:47;3.50;;;3.17;;
52033;SDS011;38045;52.988;6.536;2022-09-30T15:34:19;3.72;;;2.83;;
52033;SDS011;38045;52.988;6.536;2022-09-30T15:36:47;3.88;;;3.58;;
52033;SDS011;38045;52.988;6.536;2022-09-30T15:39:21;4.25;;;3.70;;
52033;SDS011;38045;52.988;6.536;2022-09-30T15:42:10;3.38;;;3.10;;
52033;SDS011;38045;52.988;6.536;2022-09-30T15:44:37;3.53;;;3.33;;
52033;SDS011;38045;52.988;6.536;2022-09-30T15:47:04;4.35;;;4.05;;
52033;SDS011;38045;52.988;6.536;2022-09-30T15:52:38;4.35;;;3.90;;
52033;SDS011;38045;52.988;6.536;2022-09-30T15:55:00;7.18;;;5.10;;
52033;SDS011;38045;52.988;6.536;2022-09-30T15:57:47;5.50;;;4.10;;
52033;SDS011;38045;52.988;6.536;2022-09-30T16:05:41;4.13;;;3.72;;
52033;SDS011;38045;52.988;6.536;2022-09-30T16:08:07;4.05;;;3.55;;
52033;SDS011;38045;52.988;6.536;2022-09-30T16:10:34;4.45;;;4.13;;
52033;SDS011;38045;52.988;6.536;2022-09-30T16:13:01;4.50;;;3.58;;
52033;SDS011;38045;52.988;6.536;2022-09-30T16:15:29;4.15;;;3.35;;
52033;SDS011;38045;52.988;6.536;2022-09-30T16:17:54;3.88;;;3.58;;
52033;SDS011;38045;52.988;6.536;2022-09-30T16:20:23;3.58;;;3.28;;
52033;SDS011;38045;52.988;6.536;2022-09-30T16:22:50;8.23;;;3.88;;
52033;SDS011;38045;52.988;6.536;2022-09-30T16:27:46;5.13;;;4.68;;
52033;SDS011;38045;52.988;6.536;2022-09-30T16:30:16;4.97;;;4.57;;
52033;SDS011;38045;52.988;6.536;2022-09-30T16:32:44;6.25;;;5.63;;
52033;SDS011;38045;52.988;6.536;2022-09-30T16:37:45;7.20;;;5.35;;
52033;SDS011;38045;52.988;6.536;2022-09-30T16:40:16;6.85;;;5.47;;
52033;SDS011;38045;52.988;6.536;2022-09-30T16:42:43;5.07;;;4.68;;
52033;SDS011;38045;52.988;6.536;2022-09-30T16:45:12;8.52;;;5.10;;
52033;SDS011;38045;52.988;6.536;2022-09-30T16:47:39;6.05;;;5.22;;
52033;SDS011;38045;52.988;6.536;2022-09-30T16:52:49;13.30;;;5.50;;
52033;SDS011;38045;52.988;6.536;2022-09-30T16:55:15;6.68;;;6.05;;
52033;SDS011;38045;52.988;6.536;2022-09-30T16:57:41;8.77;;;5.07;;
52033;SDS011;38045;52.988;6.536;2022-09-30T17:00:09;5.55;;;5.03;;
52033;SDS011;38045;52.988;6.536;2022-09-30T17:02:37;6.82;;;5.53;;
52033;SDS011;38045;52.988;6.536;2022-09-30T17:05:04;8.90;;;6.53;;
52033;SDS011;38045;52.988;6.536;2022-09-30T17:07:30;8.07;;;5.35;;
52033;SDS011;38045;52.988;6.536;2022-09-30T17:09:56;6.95;;;6.25;;
52033;SDS011;38045;52.988;6.536;2022-09-30T17:12:21;8.27;;;6.47;;
52033;SDS011;38045;52.988;6.536;2022-09-30T17:14:48;6.07;;;5.47;;
52033;SDS011;38045;52.988;6.536;2022-09-30T17:17:23;6.55;;;5.75;;
52033;SDS011;38045;52.988;6.536;2022-09-30T17:19:48;6.70;;;5.78;;
52033;SDS011;38045;52.988;6.536;2022-09-30T17:22:14;6.32;;;5.72;;
52033;SDS011;38045;52.988;6.536;2022-09-30T17:24:39;5.38;;;4.88;;
52033;SDS011;38045;52.988;6.536;2022-09-30T17:27:05;7.55;;;5.63;;
52033;SDS011;38045;52.988;6.536;2022-09-30T17:29:31;5.50;;;5.00;;
52033;SDS011;38045;52.988;6.536;2022-09-30T17:31:57;5.93;;;5.53;;
52033;SDS011;38045;52.988;6.536;2022-09-30T17:34:22;5.18;;;4.78;;
52033;SDS011;38045;52.988;6.536;2022-09-30T17:36:48;5.32;;;4.65;;
52033;SDS011;38045;52.988;6.536;2022-09-30T17:39:14;6.22;;;5.57;;
52033;SDS011;38045;52.988;6.536;2022-09-30T17:41:40;5.70;;;5.30;;
52033;SDS011;38045;52.988;6.536;2022-09-30T17:44:25;8.95;;;5.55;;
52033;SDS011;38045;52.988;6.536;2022-09-30T17:46:50;5.30;;;4.80;;
52033;SDS011;38045;52.988;6.536;2022-09-30T17:49:24;6.07;;;5.53;;
52033;SDS011;38045;52.988;6.536;2022-09-30T17:51:54;5.28;;;4.78;;
52033;SDS011;38045;52.988;6.536;2022-09-30T17:54:20;10.77;;;5.28;;
52033;SDS011;38045;52.988;6.536;2022-09-30T17:56:45;4.68;;;4.28;;
52033;SDS011;38045;52.988;6.536;2022-09-30T17:59:11;5.10;;;4.70;;
52033;SDS011;38045;52.988;6.536;2022-09-30T18:01:37;4.50;;;4.10;;
52033;SDS011;38045;52.988;6.536;2022-09-30T18:04:04;5.82;;;4.13;;
52033;SDS011;38045;52.988;6.536;2022-09-30T18:06:30;4.72;;;3.95;;
52033;SDS011;38045;52.988;6.536;2022-09-30T18:08:56;4.30;;;4.00;;
52033;SDS011;38045;52.988;6.536;2022-09-30T18:11:24;3.75;;;3.45;;
52033;SDS011;38045;52.988;6.536;2022-09-30T18:13:54;15.25;;;4.82;;
52033;SDS011;38045;52.988;6.536;2022-09-30T18:16:22;4.03;;;3.72;;
52033;SDS011;38045;52.988;6.536;2022-09-30T18:18:49;4.13;;;3.83;;
52033;SDS011;38045;52.988;6.536;2022-09-30T18:21:14;4.75;;;4.28;;
52033;SDS011;38045;52.988;6.536;2022-09-30T18:23:40;9.30;;;3.65;;
52033;SDS011;38045;52.988;6.536;2022-09-30T18:26:06;11.57;;;4.57;;
52033;SDS011;38045;52.988;6.536;2022-09-30T18:28:31;3.58;;;3.28;;
52033;SDS011;38045;52.988;6.536;2022-09-30T18:31:02;3.42;;;3.08;;
52033;SDS011;38045;52.988;6.536;2022-09-30T18:33:29;4.90;;;4.32;;